NCAR-RAP Real-Time Weather Data

Output produced by METARs form (08 May 2021  02:12 UTC)
found at http://weather.rap.ucar.edu/surface/
 
KIAH 080153Z 17006KT 10SM BKN230 24/09 A3003 RMK AO2 SLP167 T02390089
KIAH 080053Z 17007KT 10SM BKN230 25/11 A3003 RMK AO2 SLP169 T02500106
KIAH 072353Z 14010KT 10SM BKN230 27/10 A3005 RMK AO2 SLP175 T02670100 10311 20267 56019
KIAH 072253Z 15011KT 10SM BKN250 28/09 A3007 RMK AO2 SLP181 T02780089
KIAH 072153Z 14012KT 10SM BKN250 28/07 A3008 RMK AO2 SLP186 T02830072
KIAH 072053Z 16009KT 10SM BKN250 30/09 A3010 RMK AO2 SLP194 T03000089 58021
KIAH 071953Z 15012G19KT 140V200 10SM SCT250 30/09 A3013 RMK AO2 SLP203 T03000094
KIAH 071853Z 15012KT 10SM SCT250 30/08 A3015 RMK AO2 SLP210 T03000083
KIAH 071753Z 13011G17KT 10SM SCT250 29/10 A3017 RMK AO2 SLP215 T02890100 10294 20161 58008
KIAH 071653Z 10010KT 10SM SCT250 28/12 A3019 RMK AO2 SLP223 T02830122
KIAH 071553Z 10009KT 10SM FEW250 28/13 A3020 RMK AO2 SLP226 T02780128
KIAH 071453Z 13007KT 10SM FEW250 26/14 A3019 RMK AO2 SLP223 T02560139 51009 $
KIAH 071353Z 01003KT 10SM SCT250 23/16 A3019 RMK AO2 SLP222 T02330161 $
KIAH 071253Z 00000KT 10SM FEW250 19/16 A3018 RMK AO2 SLP221 T01940161
KIAH 071153Z 00000KT 10SM FEW250 16/14 A3016 RMK AO2 SLP214 T01610139 10194 20156 53008